Time;durP1;ratioP1;P1;durP2;ratioP2;P2;SDS_P1;SDS_P2;PMS_P1;PMS_P2;Temp;Humidity;BMP_temperature;BMP_pressure;BME280_temperature;BME280_humidity;BME280_pressure;Samples;Min_cycle;Max_cycle;Signal;HPM_P1;HPM_P2
2024/01/07 00:00:30;;;;;;;28.05;17.00;;;;;;;;;;5081378;28;20134;-65
2024/01/07 00:02:55;;;;;;;29.67;16.88;;;;;;;;;;5081270;28;20908;-65
2024/01/07 00:05:20;;;;;;;34.28;17.70;;;;;;;;;;5082766;28;20028;-64
2024/01/07 00:07:45;;;;;;;29.30;16.43;;;;;;;;;;5076825;28;20950;-64
2024/01/07 00:10:10;;;;;;;28.13;15.70;;;;;;;;;;5078036;28;21100;-64
2024/01/07 00:12:36;;;;;;;30.52;17.25;;;;;;;;;;5078809;28;20024;-65
2024/01/07 00:15:01;;;;;;;23.40;14.73;;;;;;;;;;5083268;28;20047;-64
2024/01/07 00:17:26;;;;;;;26.53;17.10;;;;;;;;;;5084914;28;20806;-65
2024/01/07 00:19:51;;;;;;;28.55;17.77;;;;;;;;;;5080911;28;20746;-65
2024/01/07 00:22:17;;;;;;;31.88;17.70;;;;;;;;;;5078048;28;20889;-65
2024/01/07 00:24:42;;;;;;;29.95;17.00;;;;;;;;;;5083293;28;20028;-65
2024/01/07 00:27:08;;;;;;;31.00;17.17;;;;;;;;;;5087386;28;20033;-65
2024/01/07 00:29:35;;;;;;;29.27;17.48;;;;;;;;;;5085506;28;20027;-63
2024/01/07 00:32:01;;;;;;;32.70;18.95;;;;;;;;;;5087698;28;20028;-64
2024/01/07 00:34:26;;;;;;;28.67;17.35;;;;;;;;;;5087396;28;20145;-65
2024/01/07 00:36:51;;;;;;;31.50;18.35;;;;;;;;;;5085411;28;20042;-65
2024/01/07 00:39:16;;;;;;;32.58;17.38;;;;;;;;;;5082746;28;20028;-64
2024/01/07 00:41:41;;;;;;;29.05;17.55;;;;;;;;;;5082685;28;20046;-64
2024/01/07 00:44:07;;;;;;;31.35;17.50;;;;;;;;;;5085972;28;20497;-64
2024/01/07 00:46:32;;;;;;;29.88;17.40;;;;;;;;;;5087932;28;20028;-64
2024/01/07 00:48:57;;;;;;;27.40;16.67;;;;;;;;;;5088198;28;20806;-64
2024/01/07 00:51:22;;;;;;;28.08;17.23;;;;;;;;;;5085028;28;20016;-64
2024/01/07 00:53:48;;;;;;;24.20;15.90;;;;;;;;;;5080220;28;20546;-65
2024/01/07 00:56:13;;;;;;;26.13;16.25;;;;;;;;;;5080409;28;20903;-65
2024/01/07 00:58:38;;;;;;;26.45;16.27;;;;;;;;;;5085219;28;20546;-65
2024/01/07 01:01:03;;;;;;;23.08;14.82;;;;;;;;;;5085431;28;20673;-65
2024/01/07 01:03:28;;;;;;;26.55;16.02;;;;;;;;;;5086376;28;20034;-65
2024/01/07 01:05:54;;;;;;;27.33;16.43;;;;;;;;;;5084270;28;20032;-65
2024/01/07 01:08:19;;;;;;;24.48;14.88;;;;;;;;;;5082138;28;20269;-65
2024/01/07 01:10:44;;;;;;;25.55;16.67;;;;;;;;;;5065941;28;20036;-65
2024/01/07 01:13:09;;;;;;;28.50;16.52;;;;;;;;;;5086143;28;20032;-65
2024/01/07 01:15:35;;;;;;;31.77;17.77;;;;;;;;;;5087526;28;20138;-65
2024/01/07 01:18:00;;;;;;;31.55;18.05;;;;;;;;;;5087414;28;20058;-65
2024/01/07 01:20:25;;;;;;;29.23;16.50;;;;;;;;;;5086579;28;20028;-65
2024/01/07 01:22:51;;;;;;;27.33;17.77;;;;;;;;;;5086287;28;20032;-65
2024/01/07 01:25:16;;;;;;;30.60;17.13;;;;;;;;;;5088361;28;20502;-65
2024/01/07 01:27:41;;;;;;;30.60;17.93;;;;;;;;;;5088580;28;20020;-65
2024/01/07 01:30:07;;;;;;;28.98;16.63;;;;;;;;;;5072474;28;20282;-65
2024/01/07 01:32:32;;;;;;;31.02;18.42;;;;;;;;;;5086974;28;20019;-65
2024/01/07 01:34:58;;;;;;;32.28;19.00;;;;;;;;;;5091591;28;20027;-65
2024/01/07 01:37:23;;;;;;;29.08;16.95;;;;;;;;;;5088269;28;20207;-65
2024/01/07 01:39:48;;;;;;;31.58;18.75;;;;;;;;;;5084332;28;20032;-64
2024/01/07 01:42:13;;;;;;;31.15;18.60;;;;;;;;;;5084500;28;20022;-64
2024/01/07 01:44:38;;;;;;;29.90;17.65;;;;;;;;;;5084888;28;20036;-64
2024/01/07 01:47:05;;;;;;;28.63;18.30;;;;;;;;;;5083922;28;20016;-64
2024/01/07 01:49:31;;;;;;;34.88;19.23;;;;;;;;;;5074421;28;20107;-64
2024/01/07 01:51:56;;;;;;;30.60;17.48;;;;;;;;;;5078588;28;20016;-64
2024/01/07 01:54:21;;;;;;;30.55;18.27;;;;;;;;;;5079104;28;20078;-64
2024/01/07 01:56:47;;;;;;;31.15;18.85;;;;;;;;;;5077909;28;20070;-64
2024/01/07 01:59:14;;;;;;;29.05;18.08;;;;;;;;;;5080622;28;20024;-65
2024/01/07 02:01:39;;;;;;;33.40;18.48;;;;;;;;;;5079131;28;20039;-65
2024/01/07 02:04:04;;;;;;;33.03;18.80;;;;;;;;;;5080998;28;20012;-64
2024/01/07 02:06:30;;;;;;;35.42;18.50;;;;;;;;;;5081895;28;20028;-65
2024/01/07 02:08:55;;;;;;;32.85;17.85;;;;;;;;;;5077472;28;20833;-65
2024/01/07 02:11:21;;;;;;;28.95;17.77;;;;;;;;;;5071565;28;20029;-65
2024/01/07 02:13:46;;;;;;;31.05;17.60;;;;;;;;;;5075926;28;20031;-65
2024/01/07 02:16:12;;;;;;;34.05;18.52;;;;;;;;;;5068775;28;20040;-65
2024/01/07 02:18:37;;;;;;;30.48;17.30;;;;;;;;;;5082148;28;20020;-65
2024/01/07 02:21:03;;;;;;;32.78;18.67;;;;;;;;;;5078678;28;20036;-65
2024/01/07 02:23:28;;;;;;;33.38;18.92;;;;;;;;;;5079152;28;20386;-65
2024/01/07 02:25:53;;;;;;;30.73;19.45;;;;;;;;;;5083167;28;20062;-65
2024/01/07 02:28:19;;;;;;;35.37;19.87;;;;;;;;;;5088102;28;20024;-65
2024/01/07 02:30:44;;;;;;;35.33;18.23;;;;;;;;;;5083338;28;20286;-65
2024/01/07 02:33:09;;;;;;;35.63;19.67;;;;;;;;;;5084580;28;20300;-65
2024/01/07 02:35:34;;;;;;;31.25;18.95;;;;;;;;;;5084937;28;20020;-65
2024/01/07 02:38:00;;;;;;;38.47;20.65;;;;;;;;;;5085448;28;20103;-65
2024/01/07 02:40:25;;;;;;;34.92;19.48;;;;;;;;;;5082158;28;20494;-65
2024/01/07 02:42:50;;;;;;;33.10;19.38;;;;;;;;;;5081366;28;20684;-65
2024/01/07 02:45:15;;;;;;;33.40;18.65;;;;;;;;;;5084660;28;20378;-66
2024/01/07 02:47:40;;;;;;;41.20;19.92;;;;;;;;;;5078850;28;20474;-66
2024/01/07 02:50:06;;;;;;;35.95;19.88;;;;;;;;;;5078019;28;20030;-66
2024/01/07 02:52:31;;;;;;;32.58;18.40;;;;;;;;;;5075287;28;20024;-66
2024/01/07 02:54:57;;;;;;;29.73;16.50;;;;;;;;;;5073121;28;20375;-64
2024/01/07 02:57:22;;;;;;;36.35;18.85;;;;;;;;;;5080397;28;20737;-64
2024/01/07 02:59:47;;;;;;;38.03;19.05;;;;;;;;;;5086594;28;20841;-64
2024/01/07 03:02:13;;;;;;;35.50;19.35;;;;;;;;;;5082181;28;20466;-64
2024/01/07 03:04:38;;;;;;;34.83;18.23;;;;;;;;;;5079503;28;20109;-64
2024/01/07 03:07:03;;;;;;;31.95;17.27;;;;;;;;;;5077889;28;20372;-64
2024/01/07 03:09:28;;;;;;;32.10;18.93;;;;;;;;;;5073526;28;20942;-64
2024/01/07 03:11:54;;;;;;;39.20;18.15;;;;;;;;;;5082023;28;20748;-65
2024/01/07 03:14:21;;;;;;;32.58;17.42;;;;;;;;;;5067407;28;20047;-66
2024/01/07 03:16:46;;;;;;;32.75;17.50;;;;;;;;;;5076638;28;20101;-66
2024/01/07 03:19:11;;;;;;;32.78;17.38;;;;;;;;;;5075350;28;20850;-65
2024/01/07 03:21:36;;;;;;;35.13;18.73;;;;;;;;;;5075043;28;20440;-66
2024/01/07 03:24:02;;;;;;;35.88;17.75;;;;;;;;;;5075142;28;20032;-66
2024/01/07 03:26:29;;;;;;;34.80;18.05;;;;;;;;;;5077414;28;20032;-65
2024/01/07 03:28:54;;;;;;;36.28;18.67;;;;;;;;;;5079087;28;20474;-65
2024/01/07 03:31:20;;;;;;;32.35;18.25;;;;;;;;;;5077400;28;20123;-65
2024/01/07 03:33:46;;;;;;;31.65;15.80;;;;;;;;;;5074558;28;20032;-65
2024/01/07 03:36:12;;;;;;;26.33;14.43;;;;;;;;;;5071180;28;20547;-63
2024/01/07 03:38:37;;;;;;;34.47;16.67;;;;;;;;;;5074499;28;20078;-65
2024/01/07 03:41:03;;;;;;;26.55;16.30;;;;;;;;;;5079575;28;20020;-65
2024/01/07 03:43:28;;;;;;;27.52;15.63;;;;;;;;;;5081896;28;20036;-66
2024/01/07 03:45:54;;;;;;;22.50;13.88;;;;;;;;;;5086414;28;20073;-65
2024/01/07 03:48:19;;;;;;;26.70;14.90;;;;;;;;;;5083059;28;20139;-65
2024/01/07 03:50:44;;;;;;;30.00;15.15;;;;;;;;;;5081076;28;20130;-65
2024/01/07 03:53:10;;;;;;;28.73;15.10;;;;;;;;;;5079573;28;20765;-65
2024/01/07 03:55:35;;;;;;;24.77;14.63;;;;;;;;;;5078506;28;20035;-65
2024/01/07 03:58:00;;;;;;;30.20;15.43;;;;;;;;;;5082422;28;20031;-64
2024/01/07 04:00:25;;;;;;;28.90;14.38;;;;;;;;;;5072124;28;20055;-65
2024/01/07 04:02:51;;;;;;;23.83;14.05;;;;;;;;;;5084193;28;20056;-64
2024/01/07 04:05:16;;;;;;;21.70;12.73;;;;;;;;;;5076156;28;20118;-64
2024/01/07 04:07:41;;;;;;;27.38;13.57;;;;;;;;;;5078224;28;20063;-64
2024/01/07 04:10:06;;;;;;;24.15;12.98;;;;;;;;;;5075641;28;20108;-64
2024/01/07 04:12:32;;;;;;;28.05;13.55;;;;;;;;;;5079788;28;20099;-65
2024/01/07 04:14:57;;;;;;;23.83;12.35;;;;;;;;;;5078790;28;20383;-65
2024/01/07 04:17:23;;;;;;;23.92;12.15;;;;;;;;;;5069906;28;20039;-65
2024/01/07 04:19:48;;;;;;;25.88;13.88;;;;;;;;;;5079061;28;20032;-65
2024/01/07 04:22:13;;;;;;;24.00;13.45;;;;;;;;;;5081436;28;20039;-65
2024/01/07 04:24:40;;;;;;;28.10;14.17;;;;;;;;;;5079346;28;20111;-65
2024/01/07 04:27:05;;;;;;;33.13;14.73;;;;;;;;;;5079601;28;20282;-65
2024/01/07 04:29:31;;;;;;;29.27;14.27;;;;;;;;;;5075975;28;20056;-65
2024/01/07 04:31:56;;;;;;;30.07;14.00;;;;;;;;;;5078754;28;20272;-65
2024/01/07 04:34:22;;;;;;;25.50;14.20;;;;;;;;;;5083058;28;20294;-65
2024/01/07 04:36:47;;;;;;;27.70;13.52;;;;;;;;;;5079375;28;20056;-65
2024/01/07 04:39:13;;;;;;;24.08;13.80;;;;;;;;;;5077610;28;20126;-65
2024/01/07 04:41:38;;;;;;;28.90;14.75;;;;;;;;;;5078094;28;20017;-65
2024/01/07 04:44:03;;;;;;;32.65;15.98;;;;;;;;;;5081093;28;20031;-66
2024/01/07 04:46:28;;;;;;;29.50;14.63;;;;;;;;;;5081987;28;20488;-65
2024/01/07 04:48:53;;;;;;;21.40;11.80;;;;;;;;;;5076655;28;20305;-65
2024/01/07 04:51:19;;;;;;;26.20;13.80;;;;;;;;;;5080532;28;20043;-65
2024/01/07 04:53:44;;;;;;;24.23;13.10;;;;;;;;;;5072375;28;20039;-64
2024/01/07 04:56:09;;;;;;;19.77;11.70;;;;;;;;;;5067945;28;20031;-64
2024/01/07 04:58:34;;;;;;;21.27;12.70;;;;;;;;;;5077524;28;20020;-65
2024/01/07 05:01:00;;;;;;;24.63;13.35;;;;;;;;;;5080571;28;20368;-65
2024/01/07 05:03:25;;;;;;;22.92;11.70;;;;;;;;;;5078347;28;20032;-65
2024/01/07 05:05:50;;;;;;;23.17;12.60;;;;;;;;;;5079535;28;20028;-65
2024/01/07 05:08:15;;;;;;;20.58;11.85;;;;;;;;;;5061664;28;20142;-64
2024/01/07 05:10:41;;;;;;;20.48;10.98;;;;;;;;;;5073341;28;20032;-64
2024/01/07 05:13:06;;;;;;;23.63;12.85;;;;;;;;;;5075742;28;20020;-65
2024/01/07 05:15:31;;;;;;;22.67;11.57;;;;;;;;;;5073472;28;20036;-64
2024/01/07 05:17:57;;;;;;;22.33;12.95;;;;;;;;;;5077780;28;20101;-64
2024/01/07 05:20:22;;;;;;;18.33;11.68;;;;;;;;;;5076148;28;20496;-64
2024/01/07 05:22:47;;;;;;;21.30;12.57;;;;;;;;;;5074755;28;20387;-65
2024/01/07 05:25:12;;;;;;;25.58;13.57;;;;;;;;;;5079478;28;20045;-63
2024/01/07 05:27:38;;;;;;;21.25;12.75;;;;;;;;;;5074630;28;20054;-64
2024/01/07 05:30:03;;;;;;;22.67;13.75;;;;;;;;;;5077792;28;20055;-64
2024/01/07 05:32:28;;;;;;;21.02;12.05;;;;;;;;;;5076876;28;20123;-64
2024/01/07 05:34:54;;;;;;;25.15;12.55;;;;;;;;;;5082104;28;20032;-65
2024/01/07 05:37:19;;;;;;;22.10;12.25;;;;;;;;;;5075823;28;20033;-65
2024/01/07 05:39:44;;;;;;;22.53;12.87;;;;;;;;;;5073642;28;20031;-65
2024/01/07 05:42:09;;;;;;;22.55;12.65;;;;;;;;;;5076277;28;20351;-65
2024/01/07 05:44:35;;;;;;;22.20;11.85;;;;;;;;;;5081114;28;20031;-65
2024/01/07 05:47:00;;;;;;;21.45;11.93;;;;;;;;;;5083947;28;20024;-65
2024/01/07 05:49:25;;;;;;;22.15;12.68;;;;;;;;;;5081116;28;20582;-65
2024/01/07 05:51:50;;;;;;;25.10;12.93;;;;;;;;;;5079155;28;20032;-65
2024/01/07 05:54:15;;;;;;;22.48;13.57;;;;;;;;;;5078350;28;20020;-65
2024/01/07 05:56:41;;;;;;;23.38;14.10;;;;;;;;;;5073627;28;20024;-65
2024/01/07 05:59:06;;;;;;;24.02;13.68;;;;;;;;;;5079994;28;20767;-64
2024/01/07 06:01:32;;;;;;;22.83;13.95;;;;;;;;;;5080523;28;20854;-66
2024/01/07 06:03:57;;;;;;;20.65;13.20;;;;;;;;;;5083026;28;20043;-63
2024/01/07 06:06:22;;;;;;;24.33;12.90;;;;;;;;;;5077943;28;20032;-64
2024/01/07 06:08:48;;;;;;;24.63;14.77;;;;;;;;;;5071810;28;20020;-63
2024/01/07 06:11:18;;;;;;;24.60;13.80;;;;;;;;;;5076716;28;20109;-63
2024/01/07 06:13:43;;;;;;;24.33;12.95;;;;;;;;;;5077349;28;20119;-63
2024/01/07 06:16:09;;;;;;;30.65;15.68;;;;;;;;;;5075974;28;20036;-63
2024/01/07 06:18:34;;;;;;;25.60;14.60;;;;;;;;;;5070559;28;20043;-65
2024/01/07 06:20:59;;;;;;;33.08;16.25;;;;;;;;;;5070962;28;20017;-65
2024/01/07 06:23:24;;;;;;;25.85;15.38;;;;;;;;;;5073636;28;20032;-63
2024/01/07 06:25:49;;;;;;;29.60;15.90;;;;;;;;;;5081210;28;20027;-63
2024/01/07 06:28:15;;;;;;;29.58;15.10;;;;;;;;;;5079935;28;20028;-63
2024/01/07 06:30:40;;;;;;;31.13;16.33;;;;;;;;;;5071056;28;20090;-64
2024/01/07 06:33:05;;;;;;;26.48;14.85;;;;;;;;;;5072605;28;20028;-65
2024/01/07 06:35:30;;;;;;;24.58;14.95;;;;;;;;;;5072023;28;20886;-65
2024/01/07 06:37:56;;;;;;;24.00;13.80;;;;;;;;;;5084290;28;20054;-65
2024/01/07 06:40:22;;;;;;;30.77;14.40;;;;;;;;;;5075383;28;20030;-64
2024/01/07 06:42:48;;;;;;;26.08;15.23;;;;;;;;;;5085499;28;20039;-65
2024/01/07 06:45:14;;;;;;;27.27;14.75;;;;;;;;;;5087399;28;20020;-64
2024/01/07 06:47:40;;;;;;;24.55;14.30;;;;;;;;;;5085934;28;20722;-64
2024/01/07 06:50:05;;;;;;;25.80;14.05;;;;;;;;;;5083554;28;20020;-64
2024/01/07 06:52:31;;;;;;;24.08;14.20;;;;;;;;;;5082211;28;20074;-64
2024/01/07 06:54:56;;;;;;;21.50;13.13;;;;;;;;;;5081127;28;20039;-65
2024/01/07 06:57:21;;;;;;;26.83;14.55;;;;;;;;;;5081101;28;20592;-65
2024/01/07 06:59:47;;;;;;;24.33;13.38;;;;;;;;;;5076313;28;20129;-64
2024/01/07 07:02:12;;;;;;;25.65;13.40;;;;;;;;;;5084013;28;20032;-64
2024/01/07 07:04:37;;;;;;;19.17;12.85;;;;;;;;;;5083638;28;20429;-65
2024/01/07 07:07:03;;;;;;;24.73;13.33;;;;;;;;;;5085510;28;20122;-64
2024/01/07 07:09:28;;;;;;;20.15;13.20;;;;;;;;;;5082898;28;21224;-64
2024/01/07 07:11:53;;;;;;;23.38;13.48;;;;;;;;;;5082530;28;20394;-64
2024/01/07 07:14:19;;;;;;;24.80;14.70;;;;;;;;;;5084191;28;20127;-64
2024/01/07 07:16:44;;;;;;;25.27;15.13;;;;;;;;;;5082591;28;20016;-64
2024/01/07 07:19:14;;;;;;;22.52;13.60;;;;;;;;;;5079877;28;20183;-65
2024/01/07 07:21:39;;;;;;;20.13;13.00;;;;;;;;;;5081728;28;20024;-65
2024/01/07 07:24:04;;;;;;;21.00;13.18;;;;;;;;;;5079689;28;20082;-65
2024/01/07 07:26:30;;;;;;;20.15;14.00;;;;;;;;;;5063937;28;20039;-64
2024/01/07 07:28:56;;;;;;;22.05;13.98;;;;;;;;;;5083514;28;20060;-64
2024/01/07 07:31:21;;;;;;;22.73;13.48;;;;;;;;;;5087205;28;20140;-64
2024/01/07 07:33:46;;;;;;;24.88;13.30;;;;;;;;;;5081888;28;20025;-65
2024/01/07 07:36:12;;;;;;;27.90;14.98;;;;;;;;;;5075753;28;20478;-64
2024/01/07 07:38:37;;;;;;;19.98;13.63;;;;;;;;;;5089839;28;20543;-64
2024/01/07 07:41:02;;;;;;;25.90;13.98;;;;;;;;;;5087161;28;20629;-64
2024/01/07 07:43:28;;;;;;;27.35;14.40;;;;;;;;;;5088726;28;20035;-64
2024/01/07 07:45:53;;;;;;;21.95;13.13;;;;;;;;;;5086153;28;20063;-64
2024/01/07 07:48:18;;;;;;;26.88;14.75;;;;;;;;;;5084442;28;20027;-64
2024/01/07 07:50:44;;;;;;;25.88;13.68;;;;;;;;;;5087277;28;20024;-64
2024/01/07 07:53:09;;;;;;;23.35;13.85;;;;;;;;;;5087880;28;20531;-65
2024/01/07 07:55:35;;;;;;;24.83;14.23;;;;;;;;;;5086810;28;20020;-63
2024/01/07 07:58:00;;;;;;;20.15;13.65;;;;;;;;;;5080694;28;20286;-64
2024/01/07 08:00:25;;;;;;;26.17;14.68;;;;;;;;;;5083001;28;20355;-64
2024/01/07 08:02:51;;;;;;;24.13;13.05;;;;;;;;;;5062531;28;20036;-64
2024/01/07 08:05:16;;;;;;;21.70;13.98;;;;;;;;;;5083572;28;20028;-64
2024/01/07 08:07:42;;;;;;;23.05;13.57;;;;;;;;;;5085186;28;20024;-64
2024/01/07 08:10:08;;;;;;;22.10;13.48;;;;;;;;;;5087342;28;20097;-64
2024/01/07 08:12:33;;;;;;;25.58;14.65;;;;;;;;;;5088965;28;20027;-64
2024/01/07 08:14:58;;;;;;;23.95;13.57;;;;;;;;;;5084538;28;20404;-65
2024/01/07 08:17:23;;;;;;;21.60;14.13;;;;;;;;;;5083741;28;20116;-64
2024/01/07 08:19:49;;;;;;;19.98;13.57;;;;;;;;;;5089283;28;20183;-64
2024/01/07 08:22:14;;;;;;;25.92;13.57;;;;;;;;;;5078956;28;20104;-64
2024/01/07 08:24:39;;;;;;;24.83;14.90;;;;;;;;;;5075580;28;20081;-66
2024/01/07 08:27:05;;;;;;;22.73;13.15;;;;;;;;;;5077479;28;20028;-64
2024/01/07 08:29:30;;;;;;;20.40;14.20;;;;;;;;;;5075797;28;20482;-65
2024/01/07 08:31:55;;;;;;;22.17;14.77;;;;;;;;;;5082529;28;20039;-64
2024/01/07 08:34:20;;;;;;;24.13;14.93;;;;;;;;;;5076666;28;20040;-64
2024/01/07 08:36:46;;;;;;;21.10;14.13;;;;;;;;;;5086161;28;20278;-64
2024/01/07 08:39:11;;;;;;;22.17;13.18;;;;;;;;;;5084087;28;20696;-63
2024/01/07 08:41:36;;;;;;;23.70;14.27;;;;;;;;;;5073152;28;20028;-63
2024/01/07 08:44:02;;;;;;;21.50;13.90;;;;;;;;;;5087056;28;21152;-64
2024/01/07 08:46:27;;;;;;;22.13;12.93;;;;;;;;;;5084058;28;20284;-63
2024/01/07 08:48:52;;;;;;;26.17;15.75;;;;;;;;;;5070268;28;20032;-63
2024/01/07 08:51:17;;;;;;;22.58;14.30;;;;;;;;;;5089084;28;20024;-63
2024/01/07 08:53:43;;;;;;;24.43;14.87;;;;;;;;;;5083859;28;20046;-63
2024/01/07 08:56:08;;;;;;;20.20;13.75;;;;;;;;;;5075351;28;20290;-63
2024/01/07 08:58:33;;;;;;;23.30;14.73;;;;;;;;;;5085194;28;20028;-63
2024/01/07 09:00:59;;;;;;;24.90;15.20;;;;;;;;;;5089311;28;20023;-65
2024/01/07 09:03:24;;;;;;;21.90;14.20;;;;;;;;;;5067670;28;20414;-63
2024/01/07 09:05:49;;;;;;;26.03;15.07;;;;;;;;;;5086560;28;20034;-63
2024/01/07 09:08:14;;;;;;;29.20;15.35;;;;;;;;;;5084886;28;20276;-63
2024/01/07 09:10:40;;;;;;;27.45;15.20;;;;;;;;;;5065726;28;20062;-63
2024/01/07 09:13:05;;;;;;;25.23;15.20;;;;;;;;;;5084417;28;20051;-65
2024/01/07 09:15:31;;;;;;;23.77;14.50;;;;;;;;;;5093442;28;20542;-64
2024/01/07 09:17:56;;;;;;;22.83;15.35;;;;;;;;;;5092912;28;20020;-64
2024/01/07 09:20:21;;;;;;;27.40;16.00;;;;;;;;;;5086003;28;20837;-64
2024/01/07 09:22:48;;;;;;;25.35;15.70;;;;;;;;;;5047705;28;20343;-64
2024/01/07 09:25:13;;;;;;;27.50;15.43;;;;;;;;;;5077082;28;20115;-64
2024/01/07 09:27:38;;;;;;;26.20;15.80;;;;;;;;;;5081303;28;20113;-64
2024/01/07 09:30:04;;;;;;;25.58;14.85;;;;;;;;;;5074212;28;20093;-64
2024/01/07 09:32:29;;;;;;;25.42;15.43;;;;;;;;;;5069506;28;20028;-64
2024/01/07 09:34:54;;;;;;;28.52;15.10;;;;;;;;;;5070836;28;20036;-63
2024/01/07 09:37:20;;;;;;;25.95;15.30;;;;;;;;;;5072219;28;20038;-64
2024/01/07 09:39:45;;;;;;;25.63;16.50;;;;;;;;;;5065306;28;20016;-64
2024/01/07 09:42:14;;;;;;;28.55;15.73;;;;;;;;;;5061152;28;20027;-64
2024/01/07 09:44:40;;;;;;;27.92;15.48;;;;;;;;;;5078205;28;20031;-64
2024/01/07 09:47:06;;;;;;;24.83;15.45;;;;;;;;;;5083535;28;20028;-64
2024/01/07 09:49:32;;;;;;;29.70;16.50;;;;;;;;;;5076879;28;20247;-64
2024/01/07 09:52:00;;;;;;;29.90;15.77;;;;;;;;;;5079117;28;20028;-64
2024/01/07 09:54:26;;;;;;;22.58;14.30;;;;;;;;;;5077294;28;20068;-64
2024/01/07 09:56:55;;;;;;;23.40;14.63;;;;;;;;;;5060632;28;20024;-63
2024/01/07 09:59:20;;;;;;;27.67;15.25;;;;;;;;;;5080299;28;20493;-63
2024/01/07 10:01:46;;;;;;;24.80;14.15;;;;;;;;;;5088012;28;20047;-65
2024/01/07 10:04:12;;;;;;;23.08;14.15;;;;;;;;;;5081877;28;20028;-65
2024/01/07 10:06:37;;;;;;;23.35;14.55;;;;;;;;;;5092250;28;20036;-64
2024/01/07 10:09:03;;;;;;;25.35;15.27;;;;;;;;;;5073765;28;20031;-62
2024/01/07 10:11:28;;;;;;;23.30;14.73;;;;;;;;;;5092530;28;20551;-64
2024/01/07 10:13:53;;;;;;;21.83;15.98;;;;;;;;;;5092496;28;20039;-65
2024/01/07 10:16:19;;;;;;;26.00;15.45;;;;;;;;;;5092929;28;20505;-65
2024/01/07 10:18:45;;;;;;;25.45;15.43;;;;;;;;;;5079232;28;20028;-65
2024/01/07 10:21:10;;;;;;;24.63;14.55;;;;;;;;;;5093007;28;20382;-66
2024/01/07 10:23:35;;;;;;;26.55;16.50;;;;;;;;;;5092234;28;20024;-65
2024/01/07 10:26:02;;;;;;;24.88;15.93;;;;;;;;;;5092506;28;20487;-67
2024/01/07 10:28:27;;;;;;;22.52;14.85;;;;;;;;;;5092756;28;20039;-65
2024/01/07 10:30:53;;;;;;;24.58;15.05;;;;;;;;;;5093261;28;20032;-65
2024/01/07 10:33:22;;;;;;;23.88;15.00;;;;;;;;;;5092174;28;20035;-65
2024/01/07 10:36:01;;;;;;;27.08;15.32;;;;;;;;;;5091860;28;20450;-65
2024/01/07 10:38:26;;;;;;;28.27;16.80;;;;;;;;;;5092109;28;20032;-65
2024/01/07 10:40:52;;;;;;;24.92;16.05;;;;;;;;;;5092908;28;20081;-66
2024/01/07 10:43:18;;;;;;;24.52;14.77;;;;;;;;;;5091450;28;20051;-66
2024/01/07 10:45:47;;;;;;;27.63;15.88;;;;;;;;;;5092097;28;20443;-66
2024/01/07 10:48:13;;;;;;;24.10;15.40;;;;;;;;;;5090947;28;20024;-65
2024/01/07 10:50:40;;;;;;;27.25;15.82;;;;;;;;;;5090071;28;20063;-66
2024/01/07 10:53:08;;;;;;;26.92;15.15;;;;;;;;;;5091579;28;20386;-66
2024/01/07 10:55:34;;;;;;;26.25;15.75;;;;;;;;;;5088458;28;20600;-65
2024/01/07 10:57:59;;;;;;;22.55;15.43;;;;;;;;;;5092026;28;20019;-65
2024/01/07 11:00:25;;;;;;;22.50;13.85;;;;;;;;;;5090412;28;20099;-64
2024/01/07 11:03:04;;;;;;;24.25;14.25;;;;;;;;;;5091733;28;20040;-64
2024/01/07 11:05:33;;;;;;;26.50;15.07;;;;;;;;;;5086859;28;20104;-66
2024/01/07 11:08:07;;;;;;;28.33;16.73;;;;;;;;;;5089609;28;20138;-64
2024/01/07 11:10:39;;;;;;;25.60;16.45;;;;;;;;;;5079706;28;20039;-64
2024/01/07 11:13:05;;;;;;;26.75;16.25;;;;;;;;;;5091657;28;20067;-64
2024/01/07 11:15:52;;;;;;;23.98;16.13;;;;;;;;;;5092413;28;20082;-64
2024/01/07 11:18:18;;;;;;;24.25;15.73;;;;;;;;;;5088435;28;20455;-65
2024/01/07 11:20:45;;;;;;;29.02;16.27;;;;;;;;;;5082147;28;20031;-64
2024/01/07 11:23:40;;;;;;;25.92;16.20;;;;;;;;;;5090428;28;20047;-63
2024/01/07 11:26:06;;;;;;;27.85;16.48;;;;;;;;;;5069012;28;20044;-63
2024/01/07 11:28:57;;;;;;;26.38;17.20;;;;;;;;;;5091708;28;20099;-64
2024/01/07 11:31:41;;;;;;;28.75;16.10;;;;;;;;;;5079174;28;20047;-63
2024/01/07 11:34:09;;;;;;;25.58;14.57;;;;;;;;;;5091251;28;20127;-63
2024/01/07 11:36:37;;;;;;;23.20;15.40;;;;;;;;;;5091306;28;20016;-64
2024/01/07 11:39:03;;;;;;;24.85;16.13;;;;;;;;;;5091618;28;20115;-64
2024/01/07 11:41:31;;;;;;;23.00;14.70;;;;;;;;;;5090314;28;20032;-63
2024/01/07 11:43:59;;;;;;;24.55;15.38;;;;;;;;;;5091997;28;20103;-63
2024/01/07 11:46:25;;;;;;;23.73;14.48;;;;;;;;;;5091390;28;20020;-64
2024/01/07 11:48:58;;;;;;;22.30;14.52;;;;;;;;;;5091548;28;20389;-65
2024/01/07 11:51:24;;;;;;;25.15;13.43;;;;;;;;;;5091263;28;20409;-64
2024/01/07 11:53:50;;;;;;;24.77;14.88;;;;;;;;;;5090617;28;20039;-64
2024/01/07 11:56:15;;;;;;;20.77;14.82;;;;;;;;;;5090972;28;20032;-64
2024/01/07 11:58:40;;;;;;;19.42;12.77;;;;;;;;;;5090514;28;20028;-64
2024/01/07 12:01:06;;;;;;;18.30;13.48;;;;;;;;;;5087480;28;20103;-64
2024/01/07 12:03:31;;;;;;;20.00;13.85;;;;;;;;;;5090953;28;20012;-64
2024/01/07 12:05:56;;;;;;;21.23;13.38;;;;;;;;;;5093750;28;20058;-65
2024/01/07 12:08:21;;;;;;;19.80;13.48;;;;;;;;;;5094601;28;20063;-64
2024/01/07 12:10:47;;;;;;;21.08;13.82;;;;;;;;;;5094771;28;20535;-64
2024/01/07 12:13:12;;;;;;;20.55;13.20;;;;;;;;;;5093521;28;20036;-65
2024/01/07 12:15:39;;;;;;;21.17;12.98;;;;;;;;;;5094609;28;20103;-64
2024/01/07 12:18:04;;;;;;;19.15;12.30;;;;;;;;;;5093560;28;20027;-64
2024/01/07 12:20:29;;;;;;;19.80;12.65;;;;;;;;;;5094140;28;20024;-65
2024/01/07 12:23:04;;;;;;;19.20;12.48;;;;;;;;;;5093968;28;20055;-64
2024/01/07 12:25:30;;;;;;;20.33;12.98;;;;;;;;;;5087175;28;20036;-65
2024/01/07 12:27:55;;;;;;;18.27;12.93;;;;;;;;;;5094545;28;20031;-65
2024/01/07 12:30:20;;;;;;;19.35;12.25;;;;;;;;;;5094677;28;20089;-64
2024/01/07 12:32:46;;;;;;;16.75;11.32;;;;;;;;;;5093409;28;20031;-66
2024/01/07 12:35:11;;;;;;;15.80;11.13;;;;;;;;;;5093810;28;20043;-65
2024/01/07 12:37:37;;;;;;;17.33;11.50;;;;;;;;;;5091227;28;20024;-64
2024/01/07 12:40:02;;;;;;;15.38;11.32;;;;;;;;;;5093125;28;20039;-65
2024/01/07 12:42:28;;;;;;;16.48;10.90;;;;;;;;;;5092686;28;20046;-64
2024/01/07 12:44:53;;;;;;;15.10;10.10;;;;;;;;;;5093765;28;20767;-64
2024/01/07 12:47:19;;;;;;;17.20;11.85;;;;;;;;;;5093835;28;20390;-65
2024/01/07 12:49:44;;;;;;;16.40;11.32;;;;;;;;;;5094027;28;20024;-65
2024/01/07 12:52:09;;;;;;;13.80;10.63;;;;;;;;;;5093193;28;20118;-64
2024/01/07 12:54:34;;;;;;;17.02;11.52;;;;;;;;;;5093831;28;20285;-65
2024/01/07 12:57:00;;;;;;;17.00;11.25;;;;;;;;;;5093864;28;20020;-64
2024/01/07 12:59:25;;;;;;;15.02;9.85;;;;;;;;;;5094122;28;20039;-64
2024/01/07 13:01:51;;;;;;;15.80;10.27;;;;;;;;;;5090857;28;20016;-65
2024/01/07 13:04:16;;;;;;;14.68;10.20;;;;;;;;;;5093905;28;20539;-65
2024/01/07 13:06:41;;;;;;;17.75;11.38;;;;;;;;;;5093169;28;20028;-65
2024/01/07 13:09:08;;;;;;;16.88;10.23;;;;;;;;;;5094126;28;20540;-65
2024/01/07 13:11:33;;;;;;;14.10;10.38;;;;;;;;;;5081678;28;20032;-65
2024/01/07 13:14:00;;;;;;;13.57;9.02;;;;;;;;;;5093526;28;20073;-65
2024/01/07 13:16:26;;;;;;;13.02;9.48;;;;;;;;;;5092981;28;20028;-65
2024/01/07 13:18:51;;;;;;;14.40;9.38;;;;;;;;;;5092604;28;20098;-64
2024/01/07 13:21:17;;;;;;;18.55;11.02;;;;;;;;;;5080843;28;20118;-65
2024/01/07 13:23:43;;;;;;;15.65;9.95;;;;;;;;;;5090421;28;20482;-65
2024/01/07 13:26:10;;;;;;;14.43;10.02;;;;;;;;;;5092131;28;20028;-65
2024/01/07 13:28:35;;;;;;;13.95;9.50;;;;;;;;;;5092917;28;20049;-65
2024/01/07 13:31:00;;;;;;;17.52;10.43;;;;;;;;;;5092859;28;20485;-65
2024/01/07 13:33:25;;;;;;;17.20;10.70;;;;;;;;;;5081770;28;20505;-64
2024/01/07 13:35:50;;;;;;;15.82;10.15;;;;;;;;;;5073967;28;20098;-64
2024/01/07 13:38:16;;;;;;;18.55;10.57;;;;;;;;;;5065948;28;20391;-65
2024/01/07 13:40:41;;;;;;;15.90;9.82;;;;;;;;;;5079150;28;20032;-65
2024/01/07 13:43:06;;;;;;;18.50;9.38;;;;;;;;;;5073473;28;20393;-64
2024/01/07 13:45:31;;;;;;;15.70;9.18;;;;;;;;;;5078608;28;20032;-64
2024/01/07 13:47:57;;;;;;;13.15;9.20;;;;;;;;;;5085586;28;20462;-65
2024/01/07 13:50:22;;;;;;;15.75;9.48;;;;;;;;;;5075356;28;20936;-65
2024/01/07 13:52:47;;;;;;;12.23;8.90;;;;;;;;;;5067472;28;20395;-65
2024/01/07 13:55:13;;;;;;;13.10;7.90;;;;;;;;;;5076441;28;20028;-64
2024/01/07 13:57:38;;;;;;;10.05;7.20;;;;;;;;;;5078726;28;20036;-64
2024/01/07 14:00:09;;;;;;;15.98;8.73;;;;;;;;;;5057526;28;20107;-64
2024/01/07 14:02:34;;;;;;;12.05;8.25;;;;;;;;;;5073376;28;20047;-64
2024/01/07 14:05:00;;;;;;;14.30;8.23;;;;;;;;;;5080555;28;20032;-64
2024/01/07 14:07:26;;;;;;;15.43;8.23;;;;;;;;;;5082914;28;20111;-64
2024/01/07 14:09:52;;;;;;;12.43;8.38;;;;;;;;;;5081187;28;20043;-64